Airport View

Enter AWOS ICAO identifier for current METAR.

ex. KFNL

KFFL 191330Z AUTO 22008KT 9SM SCT009 SCT038 SCT080 15/15 A2957 RMK AO2 PWINO

19 May 2019 13:34

Frequency: 132.025

Phone: 641-472-4548

Other Area AWOS: KAWG - KOTM - KMPZ - KOOA

TAF AMD KOTM 191252Z 1913/2012 24008KT P6SM -RA SCT011 BKN017 BKN035 FM191500 27015KT P6SM VCSH BKN030 FM200100 30016G24KT P6SM BKN025 FM200500 31012KT P6SM BKN035 FM201100 33012KT P6SM SCT080